Terminal Aerodrome Forecast
Issued by NWS Cleveland, OH

Home | Current Version | Previous Version | Text Only | Print | Product List | Glossary Off
Versions: 1 2 3 4 5 6 7 8 9 10 11 12 13 14 15 16 17 18 19 20 21 22 23 24 25 26

447
FTUS41 KCLE 110522
TAFCLE
TAF
KCLE 110522Z 1106/1212 31014KT 6SM -SHSN OVC025
      TEMPO 1106/1108 3SM -SHSN OVC015
     FM110800 30014KT P6SM BKN030
      TEMPO 1110/1114 SCT035
     FM111400 30012KT 6SM -SHSN BKN035
     FM120200 23007KT P6SM SCT035=

USA.gov is the U.S. government's official web portal to all federal, state and local government web resources and services.